createdAt,value
2019-01-10T00:00:13.052Z,209.07
2019-01-10T00:02:41.677Z,212.73
2019-01-10T00:05:13.275Z,201.37
2019-01-10T00:07:41.925Z,204.83
2019-01-10T00:10:14.070Z,199.50
2019-01-10T00:12:42.563Z,200.80
2019-01-10T00:15:18.065Z,199.57
2019-01-10T00:17:46.934Z,203.47
2019-01-10T00:20:18.314Z,198.00
2019-01-10T00:22:46.622Z,198.03
2019-01-10T00:25:15.189Z,188.73
2019-01-10T00:27:43.494Z,185.80
2019-01-10T00:30:20.698Z,187.40
2019-01-10T00:32:49.261Z,185.77
2019-01-10T00:35:17.844Z,189.67
2019-01-10T00:37:46.128Z,180.17
2019-01-10T00:40:17.548Z,171.37
2019-01-10T00:42:49.526Z,182.23
2019-01-10T00:45:16.962Z,194.97
2019-01-10T00:47:46.570Z,197.27
2019-01-10T00:50:20.641Z,194.50
2019-01-10T00:52:48.933Z,193.97
2019-01-10T00:55:17.225Z,192.33
2019-01-10T00:57:45.850Z,177.90
2019-01-10T01:00:20.377Z,175.10
2019-01-10T01:02:48.670Z,172.43
2019-01-10T01:05:17.236Z,168.13
2019-01-10T01:07:45.769Z,176.93
2019-01-10T01:10:17.069Z,171.20
2019-01-10T01:12:45.346Z,198.00
2019-01-10T01:15:15.693Z,209.90
2019-01-10T01:17:44.251Z,204.00
2019-01-10T01:20:14.892Z,216.60
2019-01-10T01:22:43.305Z,197.83
2019-01-10T01:25:12.470Z,194.07
2019-01-10T01:27:41.043Z,180.73
2019-01-10T01:30:17.376Z,197.53
2019-01-10T01:32:45.662Z,193.37
2019-01-10T01:35:14.884Z,208.00
2019-01-10T01:37:43.165Z,209.80
2019-01-10T01:40:14.813Z,193.77
2019-01-10T01:42:43.502Z,209.60
2019-01-10T01:45:13.127Z,172.30
2019-01-10T01:47:43.934Z,200.23
2019-01-10T01:50:15.549Z,202.23
2019-01-10T01:52:44.266Z,198.13
2019-01-10T01:55:12.746Z,184.33
2019-01-10T01:57:41.351Z,178.77
2019-01-10T02:00:12.846Z,197.70
2019-01-10T02:02:41.591Z,192.10
2019-01-10T02:05:10.178Z,189.80
2019-01-10T02:07:38.463Z,180.37
2019-01-10T02:10:21.858Z,167.73
2019-01-10T02:12:50.569Z,147.60
2019-01-10T02:15:21.797Z,102.93
2019-01-10T02:17:50.150Z,108.60
2019-01-10T02:20:18.453Z,111.53
2019-01-10T02:22:47.055Z,105.53
2019-01-10T02:25:16.401Z,104.77
2019-01-10T02:27:44.684Z,100.50
2019-01-10T02:30:18.232Z,102.17
2019-01-10T02:32:46.816Z,99.67
2019-01-10T02:35:15.366Z,92.70
2019-01-10T02:37:43.670Z,85.03
2019-01-10T02:40:12.262Z,81.80
2019-01-10T02:42:40.546Z,78.53
2019-01-10T02:45:12.194Z,80.07
2019-01-10T02:47:40.483Z,81.00
2019-01-10T02:50:12.330Z,73.57
2019-01-10T02:52:40.927Z,72.70
2019-01-10T02:55:09.731Z,68.37
2019-01-10T02:57:38.300Z,66.27
2019-01-10T03:00:18.558Z,60.70
2019-01-10T03:02:47.435Z,62.10
2019-01-10T03:05:15.728Z,59.80
2019-01-10T03:07:44.034Z,55.33
2019-01-10T03:10:15.575Z,62.77
2019-01-10T03:12:44.253Z,52.00
2019-01-10T03:15:12.620Z,49.17
2019-01-10T03:17:41.190Z,53.90
2019-01-10T03:20:12.842Z,43.63
2019-01-10T03:22:41.215Z,44.63
2019-01-10T03:25:09.530Z,44.40
2019-01-10T03:27:38.083Z,43.90
2019-01-10T03:30:12.210Z,38.07
2019-01-10T03:32:40.636Z,42.17
2019-01-10T03:35:09.911Z,33.93
2019-01-10T03:37:38.208Z,38.33
2019-01-10T03:40:09.769Z,34.60
2019-01-10T03:42:38.047Z,34.23
2019-01-10T03:45:09.630Z,36.03
2019-01-10T03:47:38.230Z,29.30
2019-01-10T03:50:09.247Z,31.20
2019-01-10T03:52:37.855Z,30.30
2019-01-10T03:55:06.400Z,27.67
2019-01-10T03:57:34.703Z,24.97
2019-01-10T04:00:05.327Z,31.07
2019-01-10T04:02:33.922Z,26.23
2019-01-10T04:05:02.223Z,24.57
2019-01-10T04:07:30.502Z,25.00
2019-01-10T04:09:58.802Z,22.60
2019-01-10T04:12:27.097Z,21.10
2019-01-10T04:14:55.724Z,26.40
2019-01-10T04:17:24.010Z,22.70
2019-01-10T04:19:52.579Z,23.10
2019-01-10T04:22:20.876Z,21.23
2019-01-10T04:24:49.446Z,19.90
2019-01-10T04:27:17.828Z,17.77
2019-01-10T04:29:46.402Z,18.70
2019-01-10T04:32:14.987Z,17.23
2019-01-10T04:34:43.568Z,18.53
2019-01-10T04:37:11.866Z,18.43
2019-01-10T04:39:40.141Z,16.20
2019-01-10T04:42:08.706Z,15.40
2019-01-10T04:44:37.003Z,16.40
2019-01-10T04:47:05.566Z,15.77
2019-01-10T04:49:33.953Z,15.20
2019-01-10T04:52:02.644Z,15.40
2019-01-10T04:54:31.214Z,15.77
2019-01-10T04:56:59.798Z,14.17
2019-01-10T04:59:28.110Z,12.90
2019-01-10T05:01:56.653Z,12.60
2019-01-10T05:04:25.268Z,9.40
2019-01-10T05:06:53.622Z,10.43
2019-01-10T05:09:22.206Z,10.57
2019-01-10T05:11:50.529Z,11.10
2019-01-10T05:14:18.814Z,11.40
2019-01-10T05:16:47.117Z,9.93
2019-01-10T05:19:15.722Z,10.03
2019-01-10T05:21:44.301Z,11.40
2019-01-10T05:24:12.610Z,12.57
2019-01-10T05:26:41.179Z,8.77
2019-01-10T05:29:09.554Z,11.23
2019-01-10T05:31:37.830Z,11.07
2019-01-10T05:34:06.122Z,11.23
2019-01-10T05:36:34.681Z,9.03
2019-01-10T05:39:03.734Z,10.33
2019-01-10T05:41:32.020Z,7.30
2019-01-10T05:44:00.635Z,8.57
2019-01-10T05:46:29.230Z,10.53
2019-01-10T05:48:57.510Z,8.07
2019-01-10T05:51:25.829Z,6.23
2019-01-10T05:53:54.166Z,8.90
2019-01-10T05:56:22.458Z,7.27
2019-01-10T05:58:51.014Z,8.10
2019-01-10T06:01:19.604Z,5.70
2019-01-10T06:03:53.162Z,7.17
2019-01-10T06:06:17.914Z,7.03
2019-01-10T06:08:46.478Z,8.07
2019-01-10T06:11:14.754Z,11.60
2019-01-10T06:13:43.336Z,8.53
2019-01-10T06:16:11.626Z,6.83
2019-01-10T06:18:40.190Z,7.50
2019-01-10T06:21:08.472Z,5.90
2019-01-10T06:23:36.758Z,9.40
2019-01-10T06:26:05.326Z,4.87
2019-01-10T06:28:33.615Z,6.93
2019-01-10T06:31:01.902Z,7.93
2019-01-10T06:33:30.191Z,5.13
2019-01-10T06:35:58.569Z,9.40
2019-01-10T06:38:29.991Z,5.87
2019-01-10T06:40:58.570Z,5.10
2019-01-10T06:43:26.859Z,5.00
2019-01-10T06:45:55.155Z,4.97
2019-01-10T06:48:23.451Z,6.53
2019-01-10T06:50:51.997Z,6.47
2019-01-10T06:53:20.282Z,7.60
2019-01-10T06:55:48.623Z,6.50
2019-01-10T06:58:17.226Z,6.13
2019-01-10T07:00:45.536Z,5.17
2019-01-10T07:03:13.928Z,6.93
2019-01-10T07:05:42.206Z,5.63
2019-01-10T07:08:10.858Z,5.03
2019-01-10T07:10:39.433Z,3.70
2019-01-10T07:13:08.015Z,4.00
2019-01-10T07:15:36.591Z,6.97
2019-01-10T07:18:04.923Z,4.97
2019-01-10T07:20:37.678Z,6.03
2019-01-10T07:23:06.081Z,5.67
2019-01-10T07:25:34.767Z,3.70
2019-01-10T07:28:09.605Z,5.73
2019-01-10T07:30:37.980Z,3.93
2019-01-10T07:33:06.262Z,4.80
2019-01-10T07:35:34.891Z,5.80
2019-01-10T07:38:03.182Z,4.53
2019-01-10T07:40:33.107Z,6.23
2019-01-10T07:43:01.387Z,4.00
2019-01-10T07:45:29.685Z,5.50
2019-01-10T07:47:58.219Z,7.30
2019-01-10T07:50:30.032Z,2.80
2019-01-10T07:52:58.308Z,4.53
2019-01-10T07:55:26.938Z,3.90
2019-01-10T07:57:55.523Z,4.97
2019-01-10T08:00:24.106Z,5.27
2019-01-10T08:02:52.383Z,4.93
2019-01-10T08:05:20.981Z,4.50
2019-01-10T08:07:49.268Z,7.07
2019-01-10T08:10:17.566Z,5.23
2019-01-10T08:12:46.107Z,5.27
2019-01-10T08:15:17.137Z,6.43
2019-01-10T08:17:45.552Z,8.60
2019-01-10T08:20:14.672Z,13.53
2019-01-10T08:22:43.425Z,29.93
2019-01-10T08:25:11.990Z,63.17
2019-01-10T08:27:40.584Z,91.63
2019-01-10T08:30:18.172Z,93.53
2019-01-10T08:32:46.760Z,88.57
2019-01-10T08:35:17.011Z,105.43
2019-01-10T08:37:45.307Z,128.07
2019-01-10T08:40:13.590Z,123.27
2019-01-10T08:42:42.244Z,128.13
2019-01-10T08:45:11.389Z,133.63
2019-01-10T08:47:39.715Z,117.03
2019-01-10T08:50:11.296Z,118.27
2019-01-10T08:52:39.642Z,116.87
2019-01-10T08:55:08.315Z,110.10
2019-01-10T08:57:36.622Z,114.30
2019-01-10T09:00:09.706Z,123.37
2019-01-10T09:02:38.478Z,120.00
2019-01-10T09:05:07.262Z,101.70
2019-01-10T09:07:35.570Z,103.87
2019-01-10T09:10:05.967Z,108.80
2019-01-10T09:12:34.542Z,104.73
2019-01-10T09:15:03.146Z,117.43
2019-01-10T09:17:31.454Z,119.20
2019-01-10T09:19:59.743Z,126.57
2019-01-10T09:22:28.054Z,127.63
2019-01-10T09:24:56.337Z,117.27
2019-01-10T09:27:24.919Z,118.43
2019-01-10T09:29:53.225Z,146.63
2019-01-10T09:32:21.519Z,159.57
2019-01-10T09:34:50.166Z,165.27
2019-01-10T09:37:18.748Z,149.07
2019-01-10T09:39:47.030Z,159.37
2019-01-10T09:42:15.342Z,146.40
2019-01-10T09:44:47.655Z,141.37
2019-01-10T09:47:15.994Z,143.77
2019-01-10T09:49:44.279Z,145.07
2019-01-10T09:52:12.909Z,137.70
2019-01-10T09:54:41.199Z,129.93
2019-01-10T09:57:09.506Z,157.63
2019-01-10T09:59:38.250Z,149.57
2019-01-10T10:02:06.562Z,156.27
2019-01-10T10:04:34.849Z,157.40
2019-01-10T10:07:03.495Z,160.83
2019-01-10T10:09:32.070Z,151.67
2019-01-10T10:12:00.655Z,150.73
2019-01-10T10:14:28.938Z,138.83
2019-01-10T10:16:57.524Z,132.83
2019-01-10T10:19:26.103Z,126.70
2019-01-10T10:21:54.435Z,127.67
2019-01-10T10:24:22.717Z,120.93
2019-01-10T10:26:51.004Z,117.03
2019-01-10T10:29:19.626Z,120.47
2019-01-10T10:31:48.202Z,128.37
2019-01-10T10:34:16.490Z,130.30
2019-01-10T10:36:45.062Z,130.43
2019-01-10T10:39:13.365Z,169.47
2019-01-10T10:41:42.023Z,167.67
2019-01-10T10:44:10.315Z,159.33
2019-01-10T10:46:38.639Z,156.13
2019-01-10T10:49:06.923Z,159.00
2019-01-10T10:51:35.240Z,165.07
2019-01-10T10:54:03.551Z,152.43
2019-01-10T10:56:32.195Z,146.17
2019-01-10T10:59:00.777Z,133.03
2019-01-10T11:01:29.362Z,131.07
2019-01-10T11:03:57.662Z,134.33
2019-01-10T11:06:26.229Z,132.73
2019-01-10T11:08:54.811Z,138.07
2019-01-10T11:11:23.110Z,148.43
2019-01-10T11:13:51.415Z,164.90
2019-01-10T11:16:19.711Z,155.93
2019-01-10T11:18:48.322Z,156.97
2019-01-10T11:21:16.617Z,144.40
2019-01-10T11:23:44.933Z,141.43
2019-01-10T11:26:13.562Z,142.90
2019-01-10T11:28:42.143Z,136.97
2019-01-10T11:31:10.752Z,132.07
2019-01-10T11:33:39.048Z,134.73
2019-01-10T11:36:07.378Z,128.53
2019-01-10T11:38:35.980Z,121.63
2019-01-10T11:41:04.417Z,127.13
2019-01-10T11:43:32.701Z,151.43
2019-01-10T11:46:01.321Z,160.10
2019-01-10T11:48:29.893Z,166.00
2019-01-10T11:50:58.207Z,163.33
2019-01-10T11:53:35.278Z,152.87
2019-01-10T11:55:56.884Z,142.40
2019-01-10T11:58:25.431Z,148.83
2019-01-10T12:00:55.369Z,144.47
2019-01-10T12:03:23.686Z,143.40
2019-01-10T12:05:53.100Z,142.27
2019-01-10T12:08:21.759Z,152.77
2019-01-10T12:10:50.090Z,151.00
2019-01-10T12:13:18.438Z,152.47
2019-01-10T12:15:47.083Z,138.70
2019-01-10T12:18:15.661Z,142.50
2019-01-10T12:20:43.966Z,141.90
2019-01-10T12:23:12.256Z,145.97
2019-01-10T12:25:41.008Z,188.80
2019-01-10T12:28:09.587Z,174.20
2019-01-10T12:30:37.894Z,175.03
2019-01-10T12:33:06.456Z,175.63
2019-01-10T12:35:34.754Z,153.07
2019-01-10T12:38:03.055Z,134.23
2019-01-10T12:40:31.353Z,132.83
2019-01-10T12:42:59.638Z,141.93
2019-01-10T12:45:27.950Z,130.77
2019-01-10T12:47:56.511Z,125.60
2019-01-10T12:50:27.503Z,125.17
2019-01-10T12:52:55.883Z,126.57
2019-01-10T12:55:24.189Z,123.20
2019-01-10T12:57:52.799Z,123.67
2019-01-10T13:00:24.873Z,126.37
2019-01-10T13:02:55.081Z,120.97
2019-01-10T13:05:23.670Z,120.60
2019-01-10T13:07:51.963Z,115.80
2019-01-10T13:10:20.542Z,122.77
2019-01-10T13:12:49.320Z,123.53
2019-01-10T13:15:22.952Z,111.37
2019-01-10T13:17:51.505Z,113.50
2019-01-10T13:20:19.862Z,111.53
2019-01-10T13:22:48.172Z,157.70
2019-01-10T13:25:18.300Z,159.97
2019-01-10T13:27:46.866Z,176.17
2019-01-10T13:30:17.294Z,169.20
2019-01-10T13:32:45.591Z,150.17
2019-01-10T13:35:13.982Z,141.07
2019-01-10T13:37:42.526Z,130.07
2019-01-10T13:40:12.049Z,144.40
2019-01-10T13:42:40.618Z,128.87
2019-01-10T13:45:11.218Z,123.03
2019-01-10T13:47:39.515Z,124.30
2019-01-10T13:50:11.469Z,114.03
2019-01-10T13:52:40.104Z,96.83
2019-01-10T13:55:11.417Z,94.73
2019-01-10T13:57:39.711Z,84.67
2019-01-10T14:00:14.064Z,88.40
2019-01-10T14:02:42.804Z,75.33
2019-01-10T14:05:11.106Z,77.30
2019-01-10T14:07:39.676Z,82.10
2019-01-10T14:10:13.776Z,75.40
2019-01-10T14:12:42.359Z,71.30
2019-01-10T14:15:13.960Z,69.13
2019-01-10T14:17:42.259Z,68.17
2019-01-10T14:20:12.385Z,69.20
2019-01-10T14:22:41.001Z,65.30
2019-01-10T14:25:09.682Z,65.50
2019-01-10T14:27:37.995Z,64.23
2019-01-10T14:30:12.996Z,67.63
2019-01-10T14:32:41.583Z,64.17
2019-01-10T14:35:10.164Z,58.57
2019-01-10T14:37:38.742Z,63.33
2019-01-10T14:40:09.526Z,53.67
2019-01-10T14:42:37.807Z,54.33
2019-01-10T14:45:09.823Z,54.23
2019-01-10T14:47:38.110Z,62.77
2019-01-10T14:50:08.646Z,55.87
2019-01-10T14:52:36.939Z,83.43
2019-01-10T14:55:11.465Z,73.90
2019-01-10T14:57:39.750Z,74.00
2019-01-10T15:00:13.938Z,95.10
2019-01-10T15:02:42.266Z,115.20
2019-01-10T15:05:10.782Z,97.07
2019-01-10T15:07:39.077Z,100.20
2019-01-10T15:10:09.298Z,91.50
2019-01-10T15:12:37.582Z,89.30
2019-01-10T15:15:14.569Z,82.00
2019-01-10T15:17:44.239Z,97.37
2019-01-10T15:20:15.243Z,92.37
2019-01-10T15:22:43.871Z,105.03
2019-01-10T15:25:12.176Z,103.03
2019-01-10T15:27:40.472Z,110.57
2019-01-10T15:30:14.922Z,118.63
2019-01-10T15:32:43.245Z,124.10
2019-01-10T15:35:11.574Z,120.47
2019-01-10T15:37:40.187Z,109.33
2019-01-10T15:40:14.710Z,104.30
2019-01-10T15:42:43.013Z,104.57
2019-01-10T15:45:11.378Z,102.53
2019-01-10T15:47:39.958Z,123.87
2019-01-10T15:50:11.663Z,112.67
2019-01-10T15:52:39.955Z,115.50
2019-01-10T15:55:10.842Z,125.03
2019-01-10T15:57:39.148Z,118.73
2019-01-10T16:00:11.058Z,118.97
2019-01-10T16:02:39.658Z,115.20
2019-01-10T16:05:08.330Z,112.30
2019-01-10T16:07:36.636Z,108.80
2019-01-10T16:10:08.997Z,106.87
2019-01-10T16:12:37.307Z,107.07
2019-01-10T16:15:11.860Z,120.30
2019-01-10T16:17:40.214Z,122.73
2019-01-10T16:20:10.743Z,126.43
2019-01-10T16:22:39.379Z,116.67
2019-01-10T16:25:11.900Z,115.37
2019-01-10T16:27:40.435Z,112.97
2019-01-10T16:30:12.250Z,114.60
2019-01-10T16:32:40.984Z,125.37
2019-01-10T16:35:09.566Z,154.97
2019-01-10T16:37:38.148Z,147.43
2019-01-10T16:40:09.497Z,151.83
2019-01-10T16:42:37.806Z,147.20
2019-01-10T16:45:09.942Z,165.23
2019-01-10T16:47:38.818Z,195.40
2019-01-10T16:50:10.605Z,213.03
2019-01-10T16:52:39.298Z,194.77
2019-01-10T16:55:09.121Z,203.27
2019-01-10T16:57:37.448Z,182.87
2019-01-10T17:00:11.985Z,184.83
2019-01-10T17:02:40.318Z,183.60
2019-01-10T17:05:08.651Z,170.87
2019-01-10T17:07:37.079Z,191.00
2019-01-10T17:10:07.845Z,173.57
2019-01-10T17:12:36.180Z,166.43
2019-01-10T17:15:07.650Z,168.70
2019-01-10T17:17:37.794Z,174.93
2019-01-10T17:20:09.289Z,159.50
2019-01-10T17:22:37.865Z,155.47
2019-01-10T17:25:07.091Z,154.17
2019-01-10T17:27:35.393Z,146.00
2019-01-10T17:30:05.388Z,127.90
2019-01-10T17:32:33.680Z,117.27
2019-01-10T17:35:02.056Z,164.37
2019-01-10T17:37:30.675Z,166.53
2019-01-10T17:39:59.265Z,152.17
2019-01-10T17:42:27.925Z,149.80
2019-01-10T17:44:56.230Z,150.20
2019-01-10T17:47:24.810Z,229.07
2019-01-10T17:49:53.118Z,241.67
2019-01-10T17:52:25.052Z,219.97
2019-01-10T17:54:51.714Z,250.57
2019-01-10T17:57:20.017Z,256.30
2019-01-10T17:59:48.569Z,253.80
2019-01-10T18:02:16.879Z,259.73
2019-01-10T18:04:45.227Z,258.53
2019-01-10T18:07:13.534Z,249.87
2019-01-10T18:09:42.180Z,245.40
2019-01-10T18:12:10.856Z,239.53
2019-01-10T18:14:39.150Z,244.13
2019-01-10T18:17:07.838Z,232.97
2019-01-10T18:19:39.483Z,239.73
2019-01-10T18:22:08.049Z,310.20
2019-01-10T18:24:37.808Z,306.07
2019-01-10T18:27:06.451Z,281.17
2019-01-10T18:29:37.726Z,268.30
2019-01-10T18:32:06.158Z,258.13
2019-01-10T18:34:34.748Z,227.37
2019-01-10T18:37:03.339Z,233.83
2019-01-10T18:39:34.622Z,225.77
2019-01-10T18:42:03.179Z,226.07
2019-01-10T18:44:31.758Z,227.73
2019-01-10T18:47:00.858Z,209.93
2019-01-10T18:49:29.439Z,221.43
2019-01-10T18:51:57.755Z,213.73
2019-01-10T18:54:26.400Z,196.80
2019-01-10T18:56:54.688Z,201.47
2019-01-10T18:59:23.358Z,197.90
2019-01-10T19:01:51.650Z,195.23
2019-01-10T19:04:19.960Z,191.90
2019-01-10T19:06:48.607Z,186.20
2019-01-10T19:09:17.201Z,181.13
2019-01-10T19:11:45.554Z,178.17
2019-01-10T19:14:13.864Z,189.40
2019-01-10T19:16:42.423Z,183.43
2019-01-10T19:19:11.002Z,176.20
2019-01-10T19:21:39.306Z,161.40
2019-01-10T19:24:07.590Z,164.50
2019-01-10T19:26:36.245Z,170.23
2019-01-10T19:29:04.831Z,201.67
2019-01-10T19:31:33.416Z,194.10
2019-01-10T19:34:03.329Z,190.67
2019-01-10T19:36:33.980Z,174.97
2019-01-10T19:39:02.272Z,188.37
2019-01-10T19:41:30.578Z,189.07
2019-01-10T19:43:59.140Z,223.57
2019-01-10T19:46:27.783Z,198.27
2019-01-10T19:48:56.367Z,183.13
2019-01-10T19:51:24.925Z,201.70
2019-01-10T19:53:53.295Z,198.80
2019-01-10T19:56:21.627Z,210.13
2019-01-10T19:58:50.009Z,220.73
2019-01-10T20:01:21.179Z,211.10
2019-01-10T20:03:49.526Z,198.80
2019-01-10T20:06:21.163Z,190.27
2019-01-10T20:08:49.746Z,194.97
2019-01-10T20:11:18.056Z,205.43
2019-01-10T20:13:46.363Z,190.00
2019-01-10T20:16:16.364Z,183.07
2019-01-10T20:18:46.650Z,186.73
2019-01-10T20:21:14.951Z,192.60
2019-01-10T20:23:43.618Z,187.87
2019-01-10T20:26:13.927Z,176.00
2019-01-10T20:28:42.511Z,173.57
2019-01-10T20:31:10.998Z,165.77
2019-01-10T20:33:41.047Z,166.73
2019-01-10T20:36:09.696Z,158.77
2019-01-10T20:38:38.014Z,154.87
2019-01-10T20:41:06.562Z,155.63
2019-01-10T20:43:35.146Z,150.77
2019-01-10T20:46:05.367Z,154.17
2019-01-10T20:48:38.346Z,154.27
2019-01-10T20:51:09.586Z,153.93
2019-01-10T20:53:38.075Z,154.67
2019-01-10T20:56:06.419Z,159.17
2019-01-10T20:58:41.949Z,155.43
2019-01-10T21:01:10.794Z,149.00
2019-01-10T21:03:39.103Z,140.53
2019-01-10T21:06:10.952Z,147.83
2019-01-10T21:08:39.517Z,147.40
2019-01-10T21:11:07.838Z,165.57
2019-01-10T21:13:38.517Z,178.57
2019-01-10T21:16:06.811Z,178.37
2019-01-10T21:18:37.042Z,183.33
2019-01-10T21:21:05.606Z,184.83
2019-01-10T21:23:35.512Z,179.23
2019-01-10T21:26:04.215Z,162.97
2019-01-10T21:28:32.796Z,163.07
2019-01-10T21:31:01.649Z,160.87
2019-01-10T21:33:30.306Z,155.20
2019-01-10T21:35:59.866Z,152.07
2019-01-10T21:38:28.266Z,157.00
2019-01-10T21:40:56.553Z,162.23
2019-01-10T21:43:25.118Z,165.53
2019-01-10T21:45:53.699Z,187.60
2019-01-10T21:48:22.591Z,224.70
2019-01-10T21:50:56.945Z,214.77
2019-01-10T21:53:25.490Z,217.47
2019-01-10T21:55:57.654Z,229.73
2019-01-10T21:58:27.854Z,233.43
2019-01-10T22:00:56.147Z,229.40
2019-01-10T22:03:24.538Z,211.17
2019-01-10T22:05:53.122Z,240.17
2019-01-10T22:08:27.966Z,236.67
2019-01-10T22:10:56.652Z,218.03
2019-01-10T22:13:26.976Z,211.47
2019-01-10T22:15:55.298Z,203.20
2019-01-10T22:18:24.513Z,204.70
2019-01-10T22:20:52.826Z,202.00
2019-01-10T22:23:21.123Z,192.97
2019-01-10T22:25:49.771Z,187.63
2019-01-10T22:28:18.316Z,182.27
2019-01-10T22:30:48.272Z,181.47
2019-01-10T22:33:22.735Z,179.80
2019-01-10T22:35:51.401Z,170.07
2019-01-10T22:38:19.969Z,180.10
2019-01-10T22:40:48.553Z,171.97
2019-01-10T22:43:19.278Z,171.00
2019-01-10T22:45:52.026Z,166.57
2019-01-10T22:48:20.408Z,151.87
2019-01-10T22:50:48.730Z,168.37
2019-01-10T22:53:17.300Z,178.47
2019-01-10T22:55:45.590Z,187.80
2019-01-10T22:58:14.275Z,179.03
2019-01-10T23:00:56.479Z,158.07
2019-01-10T23:03:24.803Z,164.00
2019-01-10T23:05:53.095Z,176.60
2019-01-10T23:08:21.709Z,169.70
2019-01-10T23:10:50.322Z,210.53
2019-01-10T23:13:20.296Z,200.77
2019-01-10T23:15:50.220Z,193.97
2019-01-10T23:18:18.911Z,179.20
2019-01-10T23:20:55.153Z,185.80
2019-01-10T23:23:23.454Z,171.10
2019-01-10T23:25:55.431Z,178.17
2019-01-10T23:28:23.777Z,169.50
2019-01-10T23:30:57.909Z,166.43
2019-01-10T23:33:27.059Z,161.87
2019-01-10T23:36:00.191Z,195.70
2019-01-10T23:38:28.757Z,193.23
2019-01-10T23:40:57.775Z,186.43
2019-01-10T23:43:26.360Z,178.87
2019-01-10T23:45:56.686Z,169.27
2019-01-10T23:48:25.468Z,153.57
2019-01-10T23:50:54.089Z,174.13
2019-01-10T23:53:22.730Z,181.17
2019-01-10T23:55:51.331Z,171.50
2019-01-10T23:58:20.008Z,188.03
